createdAt,value
2018-07-19T00:00:47.179Z,1011.60
2018-07-19T00:01:47.185Z,1011.61
2018-07-19T00:02:47.180Z,1011.57
2018-07-19T00:03:47.183Z,1011.60
2018-07-19T00:04:47.183Z,1011.60
2018-07-19T00:05:47.191Z,1011.60
2018-07-19T00:06:47.191Z,1011.59
2018-07-19T00:07:47.193Z,1011.55
2018-07-19T00:08:47.195Z,1011.55
2018-07-19T00:09:47.194Z,1011.58
2018-07-19T00:10:47.193Z,1011.56
2018-07-19T00:11:47.197Z,1011.52
2018-07-19T00:12:47.202Z,1011.53
2018-07-19T00:13:47.198Z,1011.54
2018-07-19T00:14:47.202Z,1011.57
2018-07-19T00:15:47.212Z,1011.62
2018-07-19T00:16:47.203Z,1011.60
2018-07-19T00:17:47.205Z,1011.59
2018-07-19T00:18:47.207Z,1011.61
2018-07-19T00:19:47.209Z,1011.62
2018-07-19T00:20:47.210Z,1011.58
2018-07-19T00:21:47.213Z,1011.58
2018-07-19T00:22:47.210Z,1011.59
2018-07-19T00:23:47.221Z,1011.62
2018-07-19T00:24:47.216Z,1011.62
2018-07-19T00:25:47.218Z,1011.64
2018-07-19T00:26:47.220Z,1011.62
2018-07-19T00:27:47.219Z,1011.57
2018-07-19T00:28:47.225Z,1011.61
2018-07-19T00:29:47.244Z,1011.63
2018-07-19T00:30:47.224Z,1011.62
2018-07-19T00:31:47.227Z,1011.62
2018-07-19T00:32:47.226Z,1011.62
2018-07-19T00:33:47.282Z,1011.64
2018-07-19T00:34:47.238Z,1011.62
2018-07-19T00:35:47.242Z,1011.58
2018-07-19T00:36:47.234Z,1011.66
2018-07-19T00:37:47.239Z,1011.59
2018-07-19T00:38:47.236Z,1011.64
2018-07-19T00:39:47.238Z,1011.62
2018-07-19T00:40:47.239Z,1011.62
2018-07-19T00:41:47.242Z,1011.65
2018-07-19T00:42:47.239Z,1011.65
2018-07-19T00:43:47.254Z,1011.68
2018-07-19T00:44:47.247Z,1011.64
2018-07-19T00:45:47.248Z,1011.65
2018-07-19T00:46:47.242Z,1011.66
2018-07-19T00:47:47.250Z,1011.66
2018-07-19T00:48:47.250Z,1011.66
2018-07-19T00:49:47.253Z,1011.68
2018-07-19T00:50:47.254Z,1011.63
2018-07-19T00:51:47.254Z,1011.64
2018-07-19T00:52:47.256Z,1011.66
2018-07-19T00:53:47.260Z,1011.64
2018-07-19T00:54:47.267Z,1011.63
2018-07-19T00:55:47.265Z,1011.65
2018-07-19T00:56:47.261Z,1011.65
2018-07-19T00:57:47.263Z,1011.63
2018-07-19T00:58:47.288Z,1011.60
2018-07-19T00:59:47.282Z,1011.58
2018-07-19T01:00:47.271Z,1011.59
2018-07-19T01:01:47.268Z,1011.60
2018-07-19T01:02:47.267Z,1011.60
2018-07-19T01:03:47.271Z,1011.56
2018-07-19T01:04:47.272Z,1011.55
2018-07-19T01:05:47.274Z,1011.53
2018-07-19T01:06:47.275Z,1011.53
2018-07-19T01:07:47.275Z,1011.54
2018-07-19T01:08:47.278Z,1011.53
2018-07-19T01:09:47.278Z,1011.55
2018-07-19T01:10:47.280Z,1011.51
2018-07-19T01:11:47.282Z,1011.50
2018-07-19T01:12:47.285Z,1011.54
2018-07-19T01:13:47.285Z,1011.54
2018-07-19T01:14:47.281Z,1011.49
2018-07-19T01:15:47.286Z,1011.50
2018-07-19T01:16:47.292Z,1011.52
2018-07-19T01:17:47.289Z,1011.49
2018-07-19T01:18:47.284Z,1011.53
2018-07-19T01:19:47.290Z,1011.49
2018-07-19T01:20:47.290Z,1011.51
2018-07-19T01:21:47.295Z,1011.54
2018-07-19T01:22:47.297Z,1011.53
2018-07-19T01:23:47.295Z,1011.51
2018-07-19T01:24:47.296Z,1011.52
2018-07-19T01:25:47.301Z,1011.53
2018-07-19T01:26:47.303Z,1011.53
2018-07-19T01:27:47.302Z,1011.52
2018-07-19T01:28:47.301Z,1011.54
2018-07-19T01:29:47.302Z,1011.53
2018-07-19T01:30:47.303Z,1011.49
2018-07-19T01:31:47.311Z,1011.48
2018-07-19T01:32:47.305Z,1011.51
2018-07-19T01:33:47.305Z,1011.51
2018-07-19T01:34:47.311Z,1011.52
2018-07-19T01:35:47.308Z,1011.46
2018-07-19T01:36:47.313Z,1011.52
2018-07-19T01:37:47.310Z,1011.47
2018-07-19T01:38:47.311Z,1011.50
2018-07-19T01:39:47.311Z,1011.53
2018-07-19T01:40:47.318Z,1011.49
2018-07-19T01:41:47.323Z,1011.53
2018-07-19T01:42:47.317Z,1011.51
2018-07-19T01:43:47.319Z,1011.54
2018-07-19T01:44:47.320Z,1011.53
2018-07-19T01:45:47.343Z,1011.53
2018-07-19T01:46:47.317Z,1011.53
2018-07-19T01:47:47.323Z,1011.57
2018-07-19T01:48:47.322Z,1011.54
2018-07-19T01:49:47.331Z,1011.54
2018-07-19T01:50:47.325Z,1011.54
2018-07-19T01:51:47.327Z,1011.58
2018-07-19T01:52:47.329Z,1011.56
2018-07-19T01:53:47.330Z,1011.54
2018-07-19T01:54:47.331Z,1011.52
2018-07-19T01:55:47.325Z,1011.57
2018-07-19T01:56:47.337Z,1011.55
2018-07-19T01:57:47.331Z,1011.54
2018-07-19T01:58:47.335Z,1011.54
2018-07-19T01:59:47.332Z,1011.56
2018-07-19T02:00:47.336Z,1011.57
2018-07-19T02:01:47.337Z,1011.60
2018-07-19T02:02:47.339Z,1011.59
2018-07-19T02:03:47.340Z,1011.60
2018-07-19T02:04:47.341Z,1011.59
2018-07-19T02:05:47.341Z,1011.61
2018-07-19T02:06:47.346Z,1011.61
2018-07-19T02:07:47.352Z,1011.59
2018-07-19T02:08:47.345Z,1011.61
2018-07-19T02:09:47.346Z,1011.61
2018-07-19T02:10:47.350Z,1011.59
2018-07-19T02:11:47.348Z,1011.63
2018-07-19T02:12:47.350Z,1011.61
2018-07-19T02:13:47.345Z,1011.57
2018-07-19T02:14:47.349Z,1011.53
2018-07-19T02:15:47.353Z,1011.58
2018-07-19T02:16:47.388Z,1011.56
2018-07-19T02:17:47.356Z,1011.55
2018-07-19T02:18:47.369Z,1011.53
2018-07-19T02:19:47.354Z,1011.50
2018-07-19T02:20:47.360Z,1011.51
2018-07-19T02:21:47.359Z,1011.55
2018-07-19T02:22:47.361Z,1011.54
2018-07-19T02:23:47.362Z,1011.56
2018-07-19T02:24:47.363Z,1011.59
2018-07-19T02:25:47.369Z,1011.55
2018-07-19T02:26:47.370Z,1011.56
2018-07-19T02:27:47.367Z,1011.55
2018-07-19T02:28:47.367Z,1011.52
2018-07-19T02:29:47.379Z,1011.56
2018-07-19T02:30:47.369Z,1011.54
2018-07-19T02:31:47.371Z,1011.53
2018-07-19T02:32:47.369Z,1011.55
2018-07-19T02:33:47.374Z,1011.59
2018-07-19T02:34:47.372Z,1011.57
2018-07-19T02:35:47.374Z,1011.55
2018-07-19T02:36:47.374Z,1011.58
2018-07-19T02:37:47.376Z,1011.61
2018-07-19T02:38:47.376Z,1011.62
2018-07-19T02:39:47.377Z,1011.63
2018-07-19T02:40:47.379Z,1011.60
2018-07-19T02:41:47.379Z,1011.62
2018-07-19T02:42:47.380Z,1011.60
2018-07-19T02:43:47.402Z,1011.64
2018-07-19T02:44:47.380Z,1011.64
2018-07-19T02:45:47.383Z,1011.59
2018-07-19T02:46:47.393Z,1011.61
2018-07-19T02:47:47.383Z,1011.62
2018-07-19T02:48:47.385Z,1011.62
2018-07-19T02:49:47.383Z,1011.64
2018-07-19T02:50:47.389Z,1011.63
2018-07-19T02:51:47.404Z,1011.64
2018-07-19T02:52:47.389Z,1011.63
2018-07-19T02:53:47.388Z,1011.64
2018-07-19T02:54:47.389Z,1011.64
2018-07-19T02:55:47.400Z,1011.60
2018-07-19T02:56:47.392Z,1011.57
2018-07-19T02:57:47.393Z,1011.58
2018-07-19T02:58:47.392Z,1011.60
2018-07-19T02:59:47.393Z,1011.57
2018-07-19T03:00:47.399Z,1011.60
2018-07-19T03:01:47.394Z,1011.57
2018-07-19T03:02:47.397Z,1011.60
2018-07-19T03:03:47.396Z,1011.66
2018-07-19T03:04:47.403Z,1011.62
2018-07-19T03:05:47.398Z,1011.65
2018-07-19T03:06:47.393Z,1011.62
2018-07-19T03:07:47.482Z,1011.68
2018-07-19T03:08:47.399Z,1011.68
2018-07-19T03:09:47.402Z,1011.68
2018-07-19T03:10:47.401Z,1011.70
2018-07-19T03:11:47.404Z,1011.69
2018-07-19T03:12:47.407Z,1011.73
2018-07-19T03:13:47.404Z,1011.69
2018-07-19T03:14:47.404Z,1011.71
2018-07-19T03:15:47.405Z,1011.68
2018-07-19T03:16:47.409Z,1011.69
2018-07-19T03:17:47.412Z,1011.66
2018-07-19T03:18:47.408Z,1011.65
2018-07-19T03:19:47.407Z,1011.65
2018-07-19T03:20:47.410Z,1011.65
2018-07-19T03:21:47.409Z,1011.66
2018-07-19T03:22:47.410Z,1011.68
2018-07-19T03:23:47.413Z,1011.67
2018-07-19T03:24:47.410Z,1011.68
2018-07-19T03:25:47.416Z,1011.69
2018-07-19T03:26:47.410Z,1011.69
2018-07-19T03:27:47.416Z,1011.67
2018-07-19T03:28:47.413Z,1011.68
2018-07-19T03:29:47.420Z,1011.69
2018-07-19T03:30:47.473Z,1011.70
2018-07-19T03:31:47.415Z,1011.68
2018-07-19T03:32:47.417Z,1011.65
2018-07-19T03:33:47.421Z,1011.69
2018-07-19T03:34:47.424Z,1011.67
2018-07-19T03:35:47.417Z,1011.69
2018-07-19T03:36:47.417Z,1011.67
2018-07-19T03:37:47.419Z,1011.71
2018-07-19T03:38:47.420Z,1011.69
2018-07-19T03:39:47.421Z,1011.70
2018-07-19T03:40:47.420Z,1011.71
2018-07-19T03:41:47.420Z,1011.71
2018-07-19T03:42:47.421Z,1011.69
2018-07-19T03:43:47.425Z,1011.68
2018-07-19T03:44:47.423Z,1011.73
2018-07-19T03:45:47.424Z,1011.70
2018-07-19T03:46:47.424Z,1011.73
2018-07-19T03:47:47.426Z,1011.72
2018-07-19T03:48:47.425Z,1011.72
2018-07-19T03:49:47.426Z,1011.70
2018-07-19T03:50:47.430Z,1011.76
2018-07-19T03:51:47.437Z,1011.75
2018-07-19T03:52:47.429Z,1011.72
2018-07-19T03:53:47.429Z,1011.73
2018-07-19T03:54:47.431Z,1011.71
2018-07-19T03:55:47.431Z,1011.70
2018-07-19T03:56:47.431Z,1011.67
2018-07-19T03:57:47.436Z,1011.63
2018-07-19T03:58:47.433Z,1011.64
2018-07-19T03:59:47.435Z,1011.67
2018-07-19T04:00:47.434Z,1011.69
2018-07-19T04:01:47.445Z,1011.71
2018-07-19T04:02:47.437Z,1011.66
2018-07-19T04:03:47.459Z,1011.64
2018-07-19T04:04:47.436Z,1011.64
2018-07-19T04:05:47.437Z,1011.64
2018-07-19T04:06:47.443Z,1011.68
2018-07-19T04:07:47.436Z,1011.69
2018-07-19T04:08:47.450Z,1011.70
2018-07-19T04:09:47.441Z,1011.67
2018-07-19T04:10:47.439Z,1011.70
2018-07-19T04:11:47.441Z,1011.72
2018-07-19T04:12:47.442Z,1011.72
2018-07-19T04:13:47.445Z,1011.72
2018-07-19T04:14:47.440Z,1011.70
2018-07-19T04:15:47.448Z,1011.73
2018-07-19T04:16:47.453Z,1011.69
2018-07-19T04:17:47.449Z,1011.72
2018-07-19T04:18:47.451Z,1011.72
2018-07-19T04:19:47.448Z,1011.74
2018-07-19T04:20:47.473Z,1011.73
2018-07-19T04:21:47.448Z,1011.77
2018-07-19T04:22:47.450Z,1011.78
2018-07-19T04:23:47.452Z,1011.79
2018-07-19T04:24:47.456Z,1011.87
2018-07-19T04:25:47.458Z,1011.89
2018-07-19T04:26:47.453Z,1011.87
2018-07-19T04:27:47.451Z,1011.86
2018-07-19T04:28:47.457Z,1011.82
2018-07-19T04:29:47.459Z,1011.84
2018-07-19T04:30:47.461Z,1011.89
2018-07-19T04:31:47.462Z,1011.92
2018-07-19T04:32:47.458Z,1011.96
2018-07-19T04:33:47.463Z,1012.00
2018-07-19T04:34:47.464Z,1011.97
2018-07-19T04:35:47.467Z,1011.98
2018-07-19T04:36:47.468Z,1011.96
2018-07-19T04:37:47.471Z,1011.95
2018-07-19T04:38:47.472Z,1011.94
2018-07-19T04:39:47.471Z,1011.96
2018-07-19T04:40:47.475Z,1011.96
2018-07-19T04:41:47.477Z,1011.97
2018-07-19T04:42:47.476Z,1011.95
2018-07-19T04:43:47.478Z,1011.96
2018-07-19T04:44:47.484Z,1011.99
2018-07-19T04:45:47.483Z,1012.00
2018-07-19T04:46:47.483Z,1011.96
2018-07-19T04:47:47.486Z,1011.91
2018-07-19T04:48:47.491Z,1011.95
2018-07-19T04:49:47.489Z,1011.94
2018-07-19T04:50:47.492Z,1011.97
2018-07-19T04:51:47.493Z,1011.93
2018-07-19T04:52:47.492Z,1012.00
2018-07-19T04:53:47.499Z,1012.02
2018-07-19T04:54:47.496Z,1012.02
2018-07-19T04:55:47.505Z,1012.06
2018-07-19T04:56:47.502Z,1012.08
2018-07-19T04:57:47.507Z,1012.06
2018-07-19T04:58:47.508Z,1012.11
2018-07-19T04:59:47.508Z,1012.08
2018-07-19T05:00:47.509Z,1012.10
2018-07-19T05:01:47.520Z,1012.08
2018-07-19T05:02:47.510Z,1012.05
2018-07-19T05:03:47.515Z,1012.06
2018-07-19T05:04:47.519Z,1012.13
2018-07-19T05:05:47.524Z,1012.07
2018-07-19T05:06:47.529Z,1012.09
2018-07-19T05:07:47.527Z,1012.12
2018-07-19T05:08:47.528Z,1012.15
2018-07-19T05:09:47.527Z,1012.14
2018-07-19T05:10:47.532Z,1012.15
2018-07-19T05:11:47.536Z,1012.17
2018-07-19T05:12:47.539Z,1012.14
2018-07-19T05:13:47.540Z,1012.18
2018-07-19T05:14:47.543Z,1012.18
2018-07-19T05:15:47.542Z,1012.15
2018-07-19T05:16:47.601Z,1012.17
2018-07-19T05:17:47.551Z,1012.20
2018-07-19T05:18:47.553Z,1012.18
2018-07-19T05:19:47.555Z,1012.20
2018-07-19T05:20:47.559Z,1012.18
2018-07-19T05:21:47.598Z,1012.21
2018-07-19T05:22:47.569Z,1012.17
2018-07-19T05:23:47.568Z,1012.21
2018-07-19T05:24:47.574Z,1012.20
2018-07-19T05:25:47.576Z,1012.29
2018-07-19T05:26:47.577Z,1012.32
2018-07-19T05:27:47.581Z,1012.34
2018-07-19T05:28:47.583Z,1012.28
2018-07-19T05:29:47.592Z,1012.28
2018-07-19T05:30:47.591Z,1012.31
2018-07-19T05:31:47.598Z,1012.31
2018-07-19T05:32:47.604Z,1012.28
2018-07-19T05:33:47.599Z,1012.22
2018-07-19T05:34:47.602Z,1012.21
2018-07-19T05:35:47.606Z,1012.18
2018-07-19T05:36:47.608Z,1012.22
2018-07-19T05:37:47.612Z,1012.24
2018-07-19T05:38:47.646Z,1012.22
2018-07-19T05:39:47.620Z,1012.15
2018-07-19T05:40:47.626Z,1012.22
2018-07-19T05:41:47.624Z,1012.28
2018-07-19T05:42:47.627Z,1012.26
2018-07-19T05:43:47.629Z,1012.29
2018-07-19T05:44:47.635Z,1012.27
2018-07-19T05:45:47.639Z,1012.22
2018-07-19T05:46:47.640Z,1012.15
2018-07-19T05:47:47.647Z,1012.24
2018-07-19T05:48:47.915Z,1012.18
2018-07-19T05:49:47.659Z,1012.18
2018-07-19T05:50:47.656Z,1012.23
2018-07-19T05:51:47.661Z,1012.26
2018-07-19T05:52:47.662Z,1012.24
2018-07-19T05:53:47.667Z,1012.16
2018-07-19T05:54:47.671Z,1012.22
2018-07-19T05:55:47.672Z,1012.18
2018-07-19T05:56:47.676Z,1012.24
2018-07-19T05:57:47.683Z,1012.14
2018-07-19T05:58:47.684Z,1012.17
2018-07-19T05:59:47.689Z,1012.18
2018-07-19T06:00:47.692Z,1012.21
2018-07-19T06:01:47.695Z,1012.18
2018-07-19T06:02:47.703Z,1012.18
2018-07-19T06:03:47.735Z,1012.14
2018-07-19T06:04:47.707Z,1012.18
2018-07-19T06:05:47.709Z,1012.21
2018-07-19T06:06:47.714Z,1012.16
2018-07-19T06:07:47.718Z,1012.16
2018-07-19T06:08:47.725Z,1012.11
2018-07-19T06:09:47.724Z,1012.17
2018-07-19T06:10:47.729Z,1012.14
2018-07-19T06:11:47.733Z,1012.13
2018-07-19T06:12:47.737Z,1012.05
2018-07-19T06:13:47.742Z,1012.13
2018-07-19T06:14:47.746Z,1012.21
2018-07-19T06:15:47.766Z,1012.19
2018-07-19T06:16:47.753Z,1012.15
2018-07-19T06:17:47.759Z,1012.18
2018-07-19T06:18:47.759Z,1012.20
2018-07-19T06:19:47.765Z,1012.19
2018-07-19T06:20:47.773Z,1012.20
2018-07-19T06:21:47.774Z,1012.19
2018-07-19T06:22:47.776Z,1012.23
2018-07-19T06:23:47.780Z,1012.13
2018-07-19T06:24:47.798Z,1012.16
2018-07-19T06:25:47.791Z,1012.10
2018-07-19T06:26:47.794Z,1012.12
2018-07-19T06:27:47.796Z,1012.14
2018-07-19T06:28:47.803Z,1012.12
2018-07-19T06:29:47.834Z,1012.16
2018-07-19T06:30:47.812Z,1012.18
2018-07-19T06:31:47.818Z,1012.27
2018-07-19T06:32:47.819Z,1012.26
2018-07-19T06:33:47.824Z,1012.24
2018-07-19T06:34:47.828Z,1012.23
2018-07-19T06:35:47.832Z,1012.27
2018-07-19T06:36:47.838Z,1012.26
2018-07-19T06:37:47.840Z,1012.27
2018-07-19T06:38:47.844Z,1012.28
2018-07-19T06:39:47.864Z,1012.27
2018-07-19T06:40:47.853Z,1012.24
2018-07-19T06:41:47.864Z,1012.25
2018-07-19T06:42:47.869Z,1012.28
2018-07-19T06:43:47.868Z,1012.21
2018-07-19T06:44:47.869Z,1012.20
2018-07-19T06:45:47.876Z,1012.22
2018-07-19T06:46:47.889Z,1012.19
2018-07-19T06:47:47.882Z,1012.21
2018-07-19T06:48:47.884Z,1012.18
2018-07-19T06:49:47.890Z,1012.18
2018-07-19T06:50:47.894Z,1012.20
2018-07-19T06:51:47.899Z,1012.19
2018-07-19T06:52:47.902Z,1012.17
2018-07-19T06:53:47.907Z,1012.22
2018-07-19T06:54:47.914Z,1012.19
2018-07-19T06:55:47.916Z,1012.28
2018-07-19T06:56:47.921Z,1012.31
2018-07-19T06:57:47.921Z,1012.28
2018-07-19T06:58:47.924Z,1012.27
2018-07-19T06:59:47.947Z,1012.25
2018-07-19T07:00:47.932Z,1012.31
2018-07-19T07:01:47.935Z,1012.30
2018-07-19T07:02:47.957Z,1012.31
2018-07-19T07:03:47.941Z,1012.31
2018-07-19T07:04:47.946Z,1012.28
2018-07-19T07:05:47.949Z,1012.29
2018-07-19T07:06:47.953Z,1012.35
2018-07-19T07:07:47.956Z,1012.38
2018-07-19T07:08:47.982Z,1012.34
2018-07-19T07:09:47.961Z,1012.33
2018-07-19T07:10:47.963Z,1012.32
2018-07-19T07:11:47.969Z,1012.31
2018-07-19T07:12:47.970Z,1012.32
2018-07-19T07:13:47.977Z,1012.36
2018-07-19T07:14:47.975Z,1012.33
2018-07-19T07:15:47.979Z,1012.35
2018-07-19T07:16:47.983Z,1012.33
2018-07-19T07:17:47.996Z,1012.32
2018-07-19T07:18:47.987Z,1012.31
2018-07-19T07:19:47.989Z,1012.35
2018-07-19T07:20:47.994Z,1012.34
2018-07-19T07:21:48.000Z,1012.39
2018-07-19T07:22:47.999Z,1012.32
2018-07-19T07:23:48.005Z,1012.32
2018-07-19T07:24:48.001Z,1012.30
2018-07-19T07:25:48.008Z,1012.37
2018-07-19T07:26:48.013Z,1012.38
2018-07-19T07:27:48.022Z,1012.41
2018-07-19T07:28:48.022Z,1012.34
2018-07-19T07:29:48.023Z,1012.39
2018-07-19T07:30:48.023Z,1012.39
2018-07-19T07:31:48.026Z,1012.41
2018-07-19T07:32:48.029Z,1012.40
2018-07-19T07:33:48.033Z,1012.37
2018-07-19T07:34:48.035Z,1012.37
2018-07-19T07:35:48.052Z,1012.41
2018-07-19T07:36:48.041Z,1012.40
2018-07-19T07:37:48.044Z,1012.43
2018-07-19T07:38:48.080Z,1012.41
2018-07-19T07:39:48.048Z,1012.40
2018-07-19T07:40:48.055Z,1012.44
2018-07-19T07:41:48.062Z,1012.43
2018-07-19T07:42:48.057Z,1012.42
2018-07-19T07:43:48.059Z,1012.50
2018-07-19T07:44:48.065Z,1012.49
2018-07-19T07:45:48.063Z,1012.49
2018-07-19T07:46:48.069Z,1012.45
2018-07-19T07:47:48.072Z,1012.48
2018-07-19T07:48:48.075Z,1012.52
2018-07-19T07:49:48.078Z,1012.49
2018-07-19T07:50:48.083Z,1012.48
2018-07-19T07:51:48.079Z,1012.49
2018-07-19T07:52:48.090Z,1012.53
2018-07-19T07:53:48.089Z,1012.56
2018-07-19T07:54:48.091Z,1012.55
2018-07-19T07:55:48.094Z,1012.55
2018-07-19T07:56:48.097Z,1012.55
2018-07-19T07:57:48.100Z,1012.58
2018-07-19T07:58:48.102Z,1012.55
2018-07-19T07:59:48.107Z,1012.56
2018-07-19T08:00:48.113Z,1012.56
2018-07-19T08:01:48.109Z,1012.56
2018-07-19T08:02:48.115Z,1012.52
2018-07-19T08:03:48.116Z,1012.54
2018-07-19T08:04:48.118Z,1012.54
2018-07-19T08:05:48.121Z,1012.57
2018-07-19T08:06:48.125Z,1012.56
2018-07-19T08:07:48.125Z,1012.56
2018-07-19T08:08:48.134Z,1012.53
2018-07-19T08:09:48.133Z,1012.59
2018-07-19T08:10:48.136Z,1012.56
2018-07-19T08:11:48.136Z,1012.55
2018-07-19T08:12:48.142Z,1012.55
2018-07-19T08:13:48.145Z,1012.57
2018-07-19T08:14:48.146Z,1012.54
2018-07-19T08:15:48.159Z,1012.59
2018-07-19T08:16:48.150Z,1012.56
2018-07-19T08:17:48.153Z,1012.55
2018-07-19T08:18:48.157Z,1012.54
2018-07-19T08:19:48.162Z,1012.55
2018-07-19T08:20:48.162Z,1012.55
2018-07-19T08:21:48.191Z,1012.51
2018-07-19T08:22:48.168Z,1012.52
2018-07-19T08:23:48.169Z,1012.53
2018-07-19T08:24:48.178Z,1012.49
2018-07-19T08:25:48.182Z,1012.55
2018-07-19T08:26:48.176Z,1012.53
2018-07-19T08:27:48.180Z,1012.56
2018-07-19T08:28:48.185Z,1012.51
2018-07-19T08:29:48.187Z,1012.55
2018-07-19T08:30:48.188Z,1012.58
2018-07-19T08:31:48.191Z,1012.59
2018-07-19T08:32:48.194Z,1012.61
2018-07-19T08:33:48.198Z,1012.61
2018-07-19T08:34:48.197Z,1012.59
2018-07-19T08:35:48.219Z,1012.57
2018-07-19T08:36:48.203Z,1012.59
2018-07-19T08:37:48.208Z,1012.61
2018-07-19T08:38:48.210Z,1012.62
2018-07-19T08:39:48.211Z,1012.61
2018-07-19T08:40:48.215Z,1012.66
2018-07-19T08:41:48.265Z,1012.65
2018-07-19T08:42:48.221Z,1012.65
2018-07-19T08:43:48.223Z,1012.64
2018-07-19T08:44:48.227Z,1012.65
2018-07-19T08:45:48.229Z,1012.68
2018-07-19T08:46:48.242Z,1012.67
2018-07-19T08:47:48.233Z,1012.72
2018-07-19T08:48:48.235Z,1012.67
2018-07-19T08:49:48.238Z,1012.75
2018-07-19T08:50:48.254Z,1012.71
2018-07-19T08:51:48.244Z,1012.73
2018-07-19T08:52:48.247Z,1012.72
2018-07-19T08:53:48.249Z,1012.72
2018-07-19T08:54:48.253Z,1012.75
2018-07-19T08:55:48.268Z,1012.73
2018-07-19T08:56:48.299Z,1012.76
2018-07-19T08:57:48.263Z,1012.81
2018-07-19T08:58:48.257Z,1012.81
2018-07-19T08:59:48.259Z,1012.81
2018-07-19T09:00:48.267Z,1012.77
2018-07-19T09:01:48.272Z,1012.78
2018-07-19T09:02:48.272Z,1012.82
2018-07-19T09:03:48.276Z,1012.78
2018-07-19T09:04:48.284Z,1012.82
2018-07-19T09:05:48.281Z,1012.79
2018-07-19T09:06:48.283Z,1012.78
2018-07-19T09:07:48.286Z,1012.84
2018-07-19T09:08:48.287Z,1012.86
2018-07-19T09:09:48.293Z,1012.83
2018-07-19T09:10:48.292Z,1012.82
2018-07-19T09:11:48.302Z,1012.84
2018-07-19T09:12:48.299Z,1012.85
2018-07-19T09:13:48.302Z,1012.84
2018-07-19T09:14:48.305Z,1012.85
2018-07-19T09:15:48.308Z,1012.87
2018-07-19T09:16:48.309Z,1012.83
2018-07-19T09:17:48.312Z,1012.81
2018-07-19T09:18:48.315Z,1012.82
2018-07-19T09:19:48.347Z,1012.78
2018-07-19T09:20:48.320Z,1012.81
2018-07-19T09:21:48.323Z,1012.83
2018-07-19T09:22:48.380Z,1012.83
2018-07-19T09:23:48.330Z,1012.82
2018-07-19T09:24:48.328Z,1012.84
2018-07-19T09:25:48.335Z,1012.86
2018-07-19T09:26:48.340Z,1012.88
2018-07-19T09:27:48.340Z,1012.86
2018-07-19T09:28:48.342Z,1012.89
2018-07-19T09:29:48.345Z,1012.87
2018-07-19T09:30:48.347Z,1012.92
2018-07-19T09:31:48.348Z,1012.90
2018-07-19T09:32:48.351Z,1012.91
2018-07-19T09:33:48.355Z,1012.89
2018-07-19T09:34:48.362Z,1012.89
2018-07-19T09:35:48.360Z,1012.87
2018-07-19T09:36:48.364Z,1012.86
2018-07-19T09:37:48.380Z,1012.88
2018-07-19T09:38:48.370Z,1012.87
2018-07-19T09:39:48.371Z,1012.88
2018-07-19T09:40:48.376Z,1012.91
2018-07-19T09:41:48.423Z,1012.88
2018-07-19T09:42:48.380Z,1012.87
2018-07-19T09:43:48.382Z,1012.88
2018-07-19T09:44:48.385Z,1012.88
2018-07-19T09:45:48.388Z,1012.89
2018-07-19T09:46:48.394Z,1012.88
2018-07-19T09:47:48.396Z,1012.87
2018-07-19T09:48:48.419Z,1012.87
2018-07-19T09:49:48.400Z,1012.87
2018-07-19T09:50:48.435Z,1012.88
2018-07-19T09:51:48.410Z,1012.87
2018-07-19T09:52:48.408Z,1012.90
2018-07-19T09:53:48.411Z,1012.87
2018-07-19T09:54:48.412Z,1012.89
2018-07-19T09:55:48.421Z,1012.90
2018-07-19T09:56:48.420Z,1012.91
2018-07-19T09:57:48.418Z,1012.91
2018-07-19T09:58:48.421Z,1012.90
2018-07-19T09:59:48.426Z,1012.94
2018-07-19T10:00:48.428Z,1012.95
2018-07-19T10:01:48.471Z,1012.92
2018-07-19T10:02:48.437Z,1012.94
2018-07-19T10:03:48.442Z,1012.93
2018-07-19T10:04:48.444Z,1012.92
2018-07-19T10:05:48.526Z,1012.92
2018-07-19T10:06:48.450Z,1012.91
2018-07-19T10:07:48.495Z,1012.97
2018-07-19T10:08:48.456Z,1012.96
2018-07-19T10:09:48.461Z,1012.93
2018-07-19T10:10:48.461Z,1012.95
2018-07-19T10:11:48.467Z,1012.93
2018-07-19T10:12:48.472Z,1012.90
2018-07-19T10:13:48.529Z,1012.91
2018-07-19T10:14:48.514Z,1012.91
2018-07-19T10:15:48.484Z,1012.93
2018-07-19T10:16:48.481Z,1012.91
2018-07-19T10:17:48.482Z,1012.94
2018-07-19T10:18:48.486Z,1012.90
2018-07-19T10:19:48.487Z,1012.94
2018-07-19T10:20:48.498Z,1012.93
2018-07-19T10:21:48.497Z,1012.95
2018-07-19T10:22:48.501Z,1013.00
2018-07-19T10:23:48.503Z,1012.99
2018-07-19T10:24:48.507Z,1013.01
2018-07-19T10:25:48.510Z,1013.01
2018-07-19T10:26:48.511Z,1013.01
2018-07-19T10:27:48.513Z,1013.02
2018-07-19T10:28:48.521Z,1012.99
2018-07-19T10:29:48.529Z,1012.99
2018-07-19T10:30:48.527Z,1012.99
2018-07-19T10:31:48.533Z,1013.03
2018-07-19T10:32:48.551Z,1013.04
2018-07-19T10:33:48.537Z,1013.01
2018-07-19T10:34:48.540Z,1013.00
2018-07-19T10:35:48.544Z,1012.99
2018-07-19T10:36:48.549Z,1012.97
2018-07-19T10:37:48.553Z,1013.01
2018-07-19T10:38:48.559Z,1012.98
2018-07-19T10:39:48.563Z,1013.01
2018-07-19T10:40:48.563Z,1013.00
2018-07-19T10:41:48.565Z,1013.00
2018-07-19T10:42:48.569Z,1012.99
2018-07-19T10:43:48.573Z,1012.99
2018-07-19T10:44:48.577Z,1012.98
2018-07-19T10:45:48.583Z,1012.95
2018-07-19T10:46:48.582Z,1012.97
2018-07-19T10:47:48.589Z,1012.98
2018-07-19T10:48:48.592Z,1012.95
2018-07-19T10:49:48.598Z,1012.96
2018-07-19T10:50:48.598Z,1012.92
2018-07-19T10:51:48.630Z,1012.91
2018-07-19T10:52:48.606Z,1012.91
2018-07-19T10:53:48.610Z,1012.90
2018-07-19T10:54:48.615Z,1012.92
2018-07-19T10:55:48.620Z,1012.91
2018-07-19T10:56:48.621Z,1012.92
2018-07-19T10:57:48.626Z,1012.93
2018-07-19T10:58:48.624Z,1012.95
2018-07-19T10:59:48.637Z,1012.92
2018-07-19T11:00:48.633Z,1012.95
2018-07-19T11:01:48.639Z,1012.97
2018-07-19T11:02:48.716Z,1012.95
2018-07-19T11:03:48.648Z,1012.94
2018-07-19T11:04:48.655Z,1012.90
2018-07-19T11:05:48.657Z,1012.94
2018-07-19T11:06:48.660Z,1012.99
2018-07-19T11:07:48.665Z,1012.96
2018-07-19T11:08:48.718Z,1013.01
2018-07-19T11:09:48.718Z,1012.94
2018-07-19T11:10:48.675Z,1012.99
2018-07-19T11:11:48.693Z,1012.96
2018-07-19T11:12:48.690Z,1012.99
2018-07-19T11:13:48.690Z,1012.95
2018-07-19T11:14:48.692Z,1013.01
2018-07-19T11:15:48.754Z,1012.92
2018-07-19T11:16:48.701Z,1012.92
2018-07-19T11:17:48.705Z,1012.92
2018-07-19T11:18:48.709Z,1012.89
2018-07-19T11:19:48.713Z,1012.90
2018-07-19T11:20:48.716Z,1012.92
2018-07-19T11:21:48.723Z,1012.91
2018-07-19T11:22:48.730Z,1012.92
2018-07-19T11:23:48.736Z,1012.87
2018-07-19T11:24:48.736Z,1012.90
2018-07-19T11:25:48.740Z,1012.90
2018-07-19T11:26:48.744Z,1012.89
2018-07-19T11:27:48.746Z,1012.88
2018-07-19T11:28:48.749Z,1012.88
2018-07-19T11:29:48.755Z,1012.85
2018-07-19T11:30:48.759Z,1012.90
2018-07-19T11:31:48.764Z,1012.92
2018-07-19T11:32:48.769Z,1012.89
2018-07-19T11:33:48.773Z,1012.88
2018-07-19T11:34:48.776Z,1012.92
2018-07-19T11:35:48.782Z,1012.92
2018-07-19T11:36:48.788Z,1012.91
2018-07-19T11:37:48.796Z,1012.95
2018-07-19T11:38:48.794Z,1012.91
2018-07-19T11:39:48.799Z,1012.90
2018-07-19T11:40:48.801Z,1012.91
2018-07-19T11:41:48.809Z,1012.91
2018-07-19T11:42:48.807Z,1012.93
2018-07-19T11:43:48.820Z,1012.91
2018-07-19T11:44:48.827Z,1012.91
2018-07-19T11:45:48.828Z,1012.86
2018-07-19T11:46:48.831Z,1012.87
2018-07-19T11:47:48.835Z,1012.83
2018-07-19T11:48:48.839Z,1012.85
2018-07-19T11:49:48.866Z,1012.84
2018-07-19T11:50:48.849Z,1012.87
2018-07-19T11:51:48.854Z,1012.87
2018-07-19T11:52:48.859Z,1012.86
2018-07-19T11:53:48.864Z,1012.85
2018-07-19T11:54:48.870Z,1012.86
2018-07-19T11:55:48.876Z,1012.84
2018-07-19T11:56:48.876Z,1012.82
2018-07-19T11:57:48.881Z,1012.83
2018-07-19T11:58:48.914Z,1012.78
2018-07-19T11:59:48.890Z,1012.80
2018-07-19T12:00:48.904Z,1012.82
2018-07-19T12:01:48.947Z,1012.77
2018-07-19T12:02:48.902Z,1012.79
2018-07-19T12:03:48.907Z,1012.80
2018-07-19T12:04:48.937Z,1012.81
2018-07-19T12:05:48.917Z,1012.81